This is the latest recevied weather packets stored in our database for station/object WB4ROX. If no packets are shown the sender has not sent any weather packets the latest 1 day(s).
| Time | Temp. | Humidity | Pressure | Rain* | Wind** | Luminosity | Snow |
|---|---|---|---|---|---|---|---|
| 1777976549 | 9.44° C | 58% | 1018.2 hPa | 0 mm | 0.89 m/s, 83° | 1 W/m² | - |
| 1777976248 | 9.44° C | 58% | 1017.9 hPa | 0 mm | 0 m/s | 0 W/m² | - |
| 1777975944 | 9.44° C | 57% | 1018.2 hPa | 0 mm | 0.45 m/s, 61° | 0 W/m² | - |
| 1777975640 | 9.44° C | 57% | 1018.2 hPa | 0 mm | 0 m/s | 0 W/m² | - |
| 1777975337 | 9.44° C | 57% | 1018.1 hPa | 0 mm | 1.34 m/s, 311° | 0 W/m² | - |
| 1777975033 | 9.44° C | 57% | 1018.2 hPa | 0 mm | 0.89 m/s, 20° | 0 W/m² | - |
| 1777974731 | 9.44° C | 57% | 1017.9 hPa | 0 mm | 0.89 m/s, 288° | 0 W/m² | - |
| 1777974426 | 9.44° C | 57% | 1018.1 hPa | 0 mm | 0 m/s | 0 W/m² | - |
| 1777974123 | 9.44° C | 57% | 1018.2 hPa | 0 mm | 0.45 m/s, 65° | 0 W/m² | - |
| 1777973819 | 9.44° C | 57% | 1018.1 hPa | 0 mm | 0.45 m/s, 286° | 0 W/m² | - |
| 1777973517 | 9.44° C | 57% | 1017.9 hPa | 0 mm | 0.89 m/s, 113° | 0 W/m² | - |
| 1777973213 | 9.44° C | 57% | 1018.2 hPa | 0 mm | 0.89 m/s, 52° | 0 W/m² | - |
| 1777972912 | 9.44° C | 57% | 1018.2 hPa | 0 mm | 1.34 m/s, 274° | 0 W/m² | - |
| 1777972609 | 9.44° C | 58% | 1018.2 hPa | 0 mm | 1.34 m/s, 278° | 0 W/m² | - |
| 1777972306 | 9.44° C | 58% | 1018.2 hPa | 0 mm | 0.45 m/s, 71° | 0 W/m² | - |
| 1777972004 | 9.44° C | 59% | 1018.2 hPa | 0 mm | 0.89 m/s, 66° | 0 W/m² | - |
| 1777971702 | 9.44° C | 59% | 1017.9 hPa | 0 mm | 1.34 m/s, 246° | 0 W/m² | - |
| 1777971399 | 10° C | 59% | 1017.9 hPa | 0 mm | 0.89 m/s, 273° | 0 W/m² | - |
| 1777971098 | 10° C | 60% | 1018.1 hPa | 0 mm | 0.89 m/s, 311° | 0 W/m² | - |
| 1777970795 | 10° C | 59% | 1018.4 hPa | 0 mm | 0.89 m/s, 53° | 0 W/m² | - |
| 1777970493 | 9.44° C | 60% | 1018.1 hPa | 0 mm | 1.34 m/s, 283° | 0 W/m² | - |
| 1777970190 | 9.44° C | 60% | 1017.9 hPa | 0 mm | 1.34 m/s, 25° | 0 W/m² | - |
| 1777969887 | 9.44° C | 61% | 1017.8 hPa | 0 mm | 1.34 m/s, 318° | 0 W/m² | - |
| 1777969583 | 9.44° C | 61% | 1017.8 hPa | 0 mm | 0.45 m/s, 99° | 0 W/m² | - |
| 1777969280 | 9.44° C | 62% | 1017.8 hPa | 0 mm | 0.89 m/s, 51° | 0 W/m² | - |
* Rain latest hour (hover to see other rain measurements)
** Current wind speed in m/s (hover to see current wind gust speed)